Time;durP1;ratioP1;P1;durP2;ratioP2;P2;SDS_P1;SDS_P2;PMS_P1;PMS_P2;Temp;Humidity;BMP_temperature;BMP_pressure;BME280_temperature;BME280_humidity;BME280_pressure;Samples;Min_cycle;Max_cycle;Signal;HPM_P1;HPM_P2
2022/07/03 00:00:25;;;;;;;6.50;3.03;;;19.30;96.20;;;;;;5006616;28;20368;-41
2022/07/03 00:02:50;;;;;;;5.28;2.92;;;19.20;96.30;;;;;;5004971;28;20093;-43
2022/07/03 00:05:16;;;;;;;4.03;2.15;;;19.20;96.30;;;;;;5005732;28;20041;-43
2022/07/03 00:07:42;;;;;;;3.78;2.00;;;19.20;96.30;;;;;;5003190;28;20025;-43
2022/07/03 00:10:08;;;;;;;3.35;1.60;;;19.10;96.20;;;;;;5005662;28;20050;-43
2022/07/03 00:12:34;;;;;;;2.78;1.45;;;19.10;96.20;;;;;;5004367;28;20046;-42
2022/07/03 00:15:00;;;;;;;3.15;1.70;;;19.00;96.10;;;;;;5003175;28;20042;-43
2022/07/03 00:17:26;;;;;;;2.45;1.50;;;19.00;96.00;;;;;;5003369;28;20044;-44
2022/07/03 00:19:52;;;;;;;2.35;1.40;;;19.00;96.00;;;;;;5005372;28;20041;-42
2022/07/03 00:22:18;;;;;;;2.63;1.65;;;18.90;95.90;;;;;;5004466;28;20046;-43
2022/07/03 00:24:50;;;;;;;1.80;1.23;;;18.90;95.90;;;;;;4986230;28;20034;-43
2022/07/03 00:27:18;;;;;;;3.35;1.35;;;18.90;96.00;;;;;;5002971;28;20456;-43
2022/07/03 00:29:45;;;;;;;6.05;1.67;;;18.80;95.90;;;;;;4990173;28;20045;-45
2022/07/03 00:32:13;;;;;;;3.08;1.65;;;18.80;95.80;;;;;;5003305;28;20054;-43
2022/07/03 00:34:40;;;;;;;3.95;1.65;;;18.80;95.70;;;;;;5006260;28;20034;-46
2022/07/03 00:37:08;;;;;;;3.97;1.70;;;18.80;95.60;;;;;;4995681;28;20042;-46
2022/07/03 00:39:38;;;;;;;6.32;1.67;;;18.70;95.60;;;;;;5006780;28;20476;-42
2022/07/03 00:42:05;;;;;;;2.88;1.60;;;18.70;95.50;;;;;;5002515;28;20046;-41
2022/07/03 00:44:42;;;;;;;3.47;2.35;;;18.70;95.50;;;;;;5007770;28;20368;-41
2022/07/03 00:47:08;;;;;;;3.35;1.65;;;18.70;95.50;;;;;;4999067;28;20077;-44
2022/07/03 00:49:35;;;;;;;2.72;1.52;;;18.70;95.40;;;;;;5004120;28;20040;-42
2022/07/03 00:52:04;;;;;;;2.53;1.60;;;18.60;95.50;;;;;;5002198;28;20064;-42
2022/07/03 00:54:33;;;;;;;3.22;1.58;;;18.60;95.80;;;;;;5005825;28;20094;-42
2022/07/03 00:57:00;;;;;;;4.47;1.90;;;18.50;95.80;;;;;;5000348;28;20042;-42
2022/07/03 00:59:26;;;;;;;2.80;1.60;;;18.50;96.00;;;;;;5002741;28;20450;-42
2022/07/03 01:02:08;;;;;;;4.70;2.17;;;18.40;96.10;;;;;;5002993;28;20133;-42
2022/07/03 01:04:36;;;;;;;3.75;1.65;;;18.40;96.20;;;;;;4998904;28;20069;-45
2022/07/03 01:07:06;;;;;;;3.28;1.73;;;18.30;96.20;;;;;;5001523;28;20038;-42
2022/07/03 01:10:03;;;;;;;3.53;1.83;;;18.30;96.40;;;;;;5002453;28;20073;-46
2022/07/03 01:12:37;;;;;;;6.50;2.03;;;18.20;96.50;;;;;;5000346;28;20114;-42
2022/07/03 01:15:12;;;;;;;4.00;1.85;;;18.20;96.60;;;;;;5004989;28;20053;-42
2022/07/03 01:17:48;;;;;;;2.42;1.80;;;18.20;96.80;;;;;;5001285;28;20514;-45
2022/07/03 01:20:18;;;;;;;2.58;1.90;;;18.10;96.80;;;;;;4987816;28;20458;-45
2022/07/03 01:22:48;;;;;;;3.50;2.17;;;18.10;97.30;;;;;;5002742;28;20086;-43
2022/07/03 01:25:28;;;;;;;3.53;1.85;;;18.00;96.90;;;;;;5003479;28;20081;-43
2022/07/03 01:28:14;;;;;;;3.90;2.50;;;18.00;97.10;;;;;;5004170;28;20506;-42
2022/07/03 01:30:49;;;;;;;3.00;2.17;;;17.90;97.50;;;;;;5006118;28;20517;-50
2022/07/03 01:33:17;;;;;;;3.47;1.80;;;17.90;97.80;;;;;;5005010;28;20046;-41
2022/07/03 01:36:01;;;;;;;2.88;1.80;;;17.70;98.10;;;;;;5003714;28;20419;-42
2022/07/03 01:38:32;;;;;;;4.93;3.10;;;17.70;99.50;;;;;;5002863;28;20085;-41
2022/07/03 01:41:00;;;;;;;7.18;3.03;;;17.50;99.20;;;;;;5003587;28;20079;-44
2022/07/03 01:43:31;;;;;;;3.42;2.33;;;17.30;99.50;;;;;;5000301;28;20050;-42
2022/07/03 01:45:59;;;;;;;3.63;2.97;;;17.10;99.50;;;;;;5000336;28;20045;-42
2022/07/03 01:48:26;;;;;;;4.45;2.58;;;17.10;99.80;;;;;;5007686;28;20046;-42
2022/07/03 01:50:52;;;;;;;3.97;2.60;;;17.10;99.70;;;;;;5005551;28;20040;-42
2022/07/03 01:53:19;;;;;;;4.93;3.35;;;17.10;99.80;;;;;;5003699;28;20039;-42
2022/07/03 01:55:48;;;;;;;5.95;2.78;;;17.00;99.90;;;;;;5005774;28;20049;-43
2022/07/03 01:58:13;;;;;;;7.22;3.20;;;17.10;99.80;;;;;;5008515;28;20113;-43
2022/07/03 02:01:06;;;;;;;3.67;3.08;;;17.10;99.90;;;;;;5006813;28;20157;-45
2022/07/03 02:03:34;;;;;;;5.57;3.00;;;17.10;99.90;;;;;;4965494;28;20520;-45
2022/07/03 02:06:12;;;;;;;3.67;2.22;;;17.10;99.90;;;;;;5005032;28;20104;-42
2022/07/03 02:08:45;;;;;;;4.45;3.30;;;17.00;99.90;;;;;;5001338;28;20099;-41
2022/07/03 02:11:17;;;;;;;3.92;2.83;;;17.00;99.90;;;;;;5005810;28;20038;-42
2022/07/03 02:13:49;;;;;;;;;;;16.90;99.90;;;;;;5003670;28;20038;-42
2022/07/03 02:16:19;;;;;;;3.67;2.72;;;16.90;99.90;;;;;;5006100;28;19921;-42
2022/07/03 02:18:58;;;;;;;5.07;3.50;;;16.80;99.90;;;;;;5005276;28;20065;-43
2022/07/03 02:21:28;;;;;;;4.57;2.67;;;16.80;99.90;;;;;;5005859;28;20038;-40
2022/07/03 02:24:05;;;;;;;3.58;3.05;;;16.70;99.90;;;;;;5001429;28;20038;-41
2022/07/03 02:26:33;;;;;;;7.38;3.42;;;16.70;99.90;;;;;;5006073;28;20062;-42
2022/07/03 02:29:03;;;;;;;4.50;3.25;;;16.70;99.90;;;;;;5005898;28;20057;-42
2022/07/03 02:31:38;;;;;;;5.00;3.78;;;16.70;99.90;;;;;;5004806;28;20436;-41
2022/07/03 02:34:05;;;;;;;4.90;3.42;;;16.70;99.90;;;;;;5006906;28;20042;-42
2022/07/03 02:36:33;;;;;;;4.68;3.42;;;16.70;99.90;;;;;;5001627;28;20045;-42
2022/07/03 02:38:59;;;;;;;5.55;3.63;;;16.60;99.90;;;;;;5003119;28;20068;-43
2022/07/03 02:41:42;;;;;;;5.03;3.47;;;16.60;99.90;;;;;;5007420;28;20560;-44
2022/07/03 02:44:34;;;;;;;4.20;3.40;;;16.60;99.90;;;;;;5001475;28;20037;-45
2022/07/03 02:47:11;;;;;;;4.90;3.05;;;16.60;99.90;;;;;;5003060;28;20117;-44
2022/07/03 02:49:55;;;;;;;5.30;3.67;;;16.50;99.90;;;;;;5005897;28;20049;-42
2022/07/03 02:52:38;;;;;;;4.32;3.83;;;16.60;99.90;;;;;;5005196;28;20128;-45
2022/07/03 02:55:20;;;;;;;4.72;3.72;;;16.50;99.90;;;;;;5003132;28;20380;-42
2022/07/03 02:57:57;;;;;;;6.30;3.95;;;16.50;99.90;;;;;;5005281;28;20133;-42
2022/07/03 03:00:24;;;;;;;5.55;3.35;;;16.50;99.90;;;;;;5002415;28;20041;-43
2022/07/03 03:02:55;;;;;;;4.95;3.50;;;16.50;99.90;;;;;;5006643;28;20148;-43
2022/07/03 03:05:30;;;;;;;5.07;3.70;;;16.50;99.90;;;;;;5006084;28;20394;-42
2022/07/03 03:08:27;;;;;;;4.95;3.70;;;16.50;99.90;;;;;;5006308;28;20049;-45
2022/07/03 03:11:18;;;;;;;4.03;3.30;;;16.60;99.90;;;;;;5005278;28;20119;-44
2022/07/03 03:13:49;;;;;;;4.50;3.38;;;16.50;99.90;;;;;;5001230;28;20122;-42
2022/07/03 03:16:15;;;;;;;4.75;3.70;;;16.50;99.90;;;;;;5004332;28;20092;-42
2022/07/03 03:18:41;;;;;;;5.85;3.85;;;16.50;99.90;;;;;;5005638;28;20454;-43
2022/07/03 03:21:12;;;;;;;6.68;4.15;;;16.50;99.90;;;;;;5004570;28;20077;-43
2022/07/03 03:23:59;;;;;;;4.60;3.92;;;16.60;99.90;;;;;;5004384;28;20050;-44
2022/07/03 03:26:30;;;;;;;4.60;3.53;;;16.50;99.90;;;;;;5004757;28;20067;-43
2022/07/03 03:28:56;;;;;;;4.22;3.47;;;16.50;99.90;;;;;;5005294;28;20129;-42
2022/07/03 03:31:21;;;;;;;5.03;3.85;;;16.50;99.90;;;;;;5004881;28;20156;-44
2022/07/03 03:33:49;;;;;;;5.22;3.90;;;16.50;99.90;;;;;;5004514;28;20117;-45
2022/07/03 03:36:17;;;;;;;5.13;3.65;;;16.50;99.90;;;;;;5001253;28;20520;-44
2022/07/03 03:38:44;;;;;;;5.30;3.28;;;16.60;99.90;;;;;;4998767;28;20034;-47
2022/07/03 03:41:10;;;;;;;3.58;3.05;;;16.60;99.90;;;;;;5004326;28;20157;-42
2022/07/03 03:43:37;;;;;;;4.20;3.35;;;16.60;99.90;;;;;;5005774;28;20056;-43
2022/07/03 03:46:03;;;;;;;4.00;2.95;;;16.60;99.90;;;;;;5007461;28;20058;-42
2022/07/03 03:48:34;;;;;;;3.95;3.30;;;16.60;99.90;;;;;;5000969;28;20121;-43
2022/07/03 03:51:01;;;;;;;5.53;4.20;;;16.50;99.90;;;;;;5005544;28;20046;-45
2022/07/03 03:53:28;;;;;;;6.43;3.88;;;16.50;99.90;;;;;;5003124;28;20030;-42
2022/07/03 03:56:09;;;;;;;4.65;3.30;;;16.50;99.90;;;;;;5003224;28;20522;-41
2022/07/03 03:58:36;;;;;;;4.35;3.42;;;16.50;99.90;;;;;;4985826;28;20398;-42
2022/07/03 04:01:04;;;;;;;7.68;4.45;;;16.50;99.90;;;;;;5004649;28;20220;-43
2022/07/03 04:03:31;;;;;;;5.32;4.68;;;16.40;99.90;;;;;;5002894;28;20049;-42
2022/07/03 04:05:56;;;;;;;5.70;4.97;;;16.40;99.90;;;;;;5003445;28;20037;-46
2022/07/03 04:08:23;;;;;;;4.50;3.67;;;16.30;99.90;;;;;;5000385;28;20739;-43
2022/07/03 04:10:49;;;;;;;5.35;4.22;;;16.20;99.90;;;;;;5001629;28;20113;-44
2022/07/03 04:13:16;;;;;;;4.70;3.75;;;16.30;99.90;;;;;;4986321;28;20050;-44
2022/07/03 04:15:42;;;;;;;5.78;4.47;;;16.30;99.90;;;;;;5005637;28;20183;-41
2022/07/03 04:18:08;;;;;;;5.05;3.78;;;16.30;99.90;;;;;;5003500;28;20048;-42
2022/07/03 04:20:35;;;;;;;4.78;3.83;;;16.30;99.90;;;;;;5004987;28;20049;-42
2022/07/03 04:23:01;;;;;;;8.18;4.53;;;16.30;99.90;;;;;;5001051;28;20089;-43
2022/07/03 04:25:26;;;;;;;4.80;3.83;;;16.30;99.90;;;;;;5003271;28;20034;-41
2022/07/03 04:27:52;;;;;;;7.28;4.40;;;16.30;99.90;;;;;;5001695;28;20033;-43
2022/07/03 04:30:18;;;;;;;4.20;3.50;;;16.30;99.90;;;;;;5004127;28;20081;-42
2022/07/03 04:32:44;;;;;;;8.05;3.92;;;16.20;99.90;;;;;;5003633;28;20038;-45
2022/07/03 04:35:11;;;;;;;4.63;3.88;;;16.20;99.90;;;;;;5005003;28;20073;-42
2022/07/03 04:37:36;;;;;;;5.22;3.47;;;16.10;99.90;;;;;;5002308;28;20041;-42
2022/07/03 04:40:03;;;;;;;4.65;3.25;;;16.10;99.90;;;;;;5002868;28;20053;-43
2022/07/03 04:42:28;;;;;;;6.95;4.05;;;16.10;99.90;;;;;;5002707;28;20128;-42
2022/07/03 04:44:54;;;;;;;5.78;3.53;;;16.20;99.90;;;;;;5007245;28;20136;-42
2022/07/03 04:47:21;;;;;;;7.75;4.63;;;16.20;99.90;;;;;;5000679;28;20411;-43
2022/07/03 04:49:46;;;;;;;6.65;4.28;;;16.30;99.90;;;;;;5002868;28;20092;-42
2022/07/03 04:52:12;;;;;;;4.53;3.35;;;16.30;99.90;;;;;;5004308;28;20463;-42
2022/07/03 04:54:38;;;;;;;4.80;3.20;;;16.40;99.90;;;;;;5004981;28;20471;-44
2022/07/03 04:57:04;;;;;;;4.80;2.90;;;16.40;99.90;;;;;;5003563;28;20049;-42
2022/07/03 04:59:30;;;;;;;3.90;3.20;;;16.50;99.90;;;;;;5006031;28;20052;-42
2022/07/03 05:01:55;;;;;;;5.63;4.28;;;16.50;99.90;;;;;;5000939;28;20062;-43
2022/07/03 05:04:21;;;;;;;4.70;3.92;;;16.60;99.90;;;;;;5002865;28;20091;-46
2022/07/03 05:06:47;;;;;;;6.10;4.22;;;16.60;99.90;;;;;;4996427;28;20424;-42
2022/07/03 05:09:13;;;;;;;4.78;3.08;;;16.60;99.90;;;;;;5002706;28;20030;-46
2022/07/03 05:11:39;;;;;;;5.15;3.72;;;16.60;99.90;;;;;;4999108;28;20041;-43
2022/07/03 05:14:05;;;;;;;4.30;3.25;;;16.70;99.90;;;;;;4997756;28;20042;-42
2022/07/03 05:16:31;;;;;;;8.13;4.18;;;16.80;99.90;;;;;;4998922;28;20037;-42
2022/07/03 05:18:57;;;;;;;5.68;3.47;;;16.80;99.90;;;;;;5003714;28;20030;-43
2022/07/03 05:21:23;;;;;;;5.40;4.32;;;16.90;99.90;;;;;;4986229;28;20042;-44
2022/07/03 05:23:48;;;;;;;7.90;3.85;;;16.90;99.90;;;;;;5006962;28;20509;-43
2022/07/03 05:26:14;;;;;;;4.78;3.42;;;17.00;99.90;;;;;;5007218;28;20044;-42
2022/07/03 05:28:40;;;;;;;8.40;3.92;;;17.10;99.90;;;;;;5003221;28;20041;-43
2022/07/03 05:31:06;;;;;;;7.18;3.38;;;17.30;99.90;;;;;;5006589;28;20077;-44
2022/07/03 05:33:32;;;;;;;4.55;3.40;;;17.40;99.90;;;;;;5003261;28;20400;-42
2022/07/03 05:35:59;;;;;;;4.07;3.10;;;17.50;99.90;;;;;;5004445;28;20129;-42
2022/07/03 05:41:09;;;;;;;4.38;2.95;;;17.80;99.90;;;;;;5010649;28;20065;-43
2022/07/03 05:43:35;;;;;;;4.25;2.53;;;17.90;99.90;;;;;;5007931;28;20498;-47
2022/07/03 05:46:00;;;;;;;6.18;2.83;;;18.00;99.90;;;;;;4998731;28;20097;-42
2022/07/03 05:48:26;;;;;;;3.15;2.40;;;18.10;99.90;;;;;;5010184;28;20075;-44
2022/07/03 05:50:52;;;;;;;5.13;2.47;;;18.10;99.90;;;;;;5006358;28;20928;-43
2022/07/03 05:53:17;;;;;;;3.50;2.30;;;18.20;99.90;;;;;;5004872;28;20045;-44
2022/07/03 05:55:43;;;;;;;4.72;2.33;;;18.20;99.90;;;;;;5010092;28;20458;-44
2022/07/03 05:58:09;;;;;;;3.72;2.45;;;18.40;99.90;;;;;;5009862;28;20038;-43
2022/07/03 06:00:35;;;;;;;4.40;2.17;;;18.50;99.90;;;;;;5008427;28;20072;-43
2022/07/03 06:03:01;;;;;;;3.15;1.70;;;18.60;99.90;;;;;;5008033;28;20069;-42
2022/07/03 06:05:28;;;;;;;2.83;1.70;;;18.70;99.90;;;;;;5004527;28;20065;-42
2022/07/03 06:07:54;;;;;;;2.58;1.88;;;18.80;99.90;;;;;;5005614;28;20173;-43
2022/07/03 06:10:20;;;;;;;3.22;1.90;;;18.90;99.90;;;;;;4990082;28;20125;-43
2022/07/03 06:12:47;;;;;;;3.35;1.60;;;19.00;99.90;;;;;;5005863;28;20104;-44
2022/07/03 06:15:13;;;;;;;4.20;1.95;;;19.00;99.90;;;;;;5008563;28;20141;-43
2022/07/03 06:17:39;;;;;;;3.10;1.60;;;19.00;99.90;;;;;;5009832;28;20178;-49
2022/07/03 06:20:06;;;;;;;6.80;1.30;;;19.10;99.90;;;;;;5003204;28;20478;-43
2022/07/03 06:22:32;;;;;;;4.57;1.30;;;19.10;99.90;;;;;;5006462;28;20076;-42
2022/07/03 06:24:58;;;;;;;3.08;1.45;;;19.00;99.90;;;;;;5009688;28;20043;-44
2022/07/03 06:27:24;;;;;;;2.95;1.02;;;19.00;99.90;;;;;;5004725;28;20038;-42
2022/07/03 06:29:50;;;;;;;1.70;0.70;;;19.10;99.90;;;;;;5004720;28;20045;-44
2022/07/03 06:32:16;;;;;;;4.55;0.80;;;19.30;99.90;;;;;;5005446;28;20037;-45
2022/07/03 06:34:44;;;;;;;4.28;1.00;;;19.40;99.90;;;;;;5002735;28;20030;-44
2022/07/03 06:37:10;;;;;;;2.33;0.70;;;19.60;99.40;;;;;;5005696;28;20127;-42
2022/07/03 06:39:36;;;;;;;2.28;0.63;;;19.80;99.00;;;;;;5008291;28;20093;-44
2022/07/03 06:42:02;;;;;;;2.63;0.70;;;19.90;98.50;;;;;;5000615;28;20038;-42
2022/07/03 06:44:28;;;;;;;3.10;0.75;;;20.00;97.50;;;;;;5007777;28;20036;-42
2022/07/03 06:46:54;;;;;;;3.60;0.73;;;19.90;96.90;;;;;;5000712;28;20033;-42
2022/07/03 06:49:20;;;;;;;2.85;1.00;;;19.90;96.90;;;;;;5008059;28;20503;-46
2022/07/03 06:51:46;;;;;;;1.95;0.70;;;19.80;96.90;;;;;;5007879;28;20041;-44
2022/07/03 06:54:12;;;;;;;2.33;0.70;;;19.70;97.70;;;;;;5006234;28;20129;-43
2022/07/03 06:56:38;;;;;;;2.70;0.60;;;19.50;97.90;;;;;;5005863;28;20117;-43
2022/07/03 06:59:03;;;;;;;1.48;0.60;;;19.50;98.70;;;;;;5008380;28;20157;-42
2022/07/03 07:01:29;;;;;;;4.03;0.85;;;19.40;99.60;;;;;;5003353;28;20071;-42
2022/07/03 07:03:55;;;;;;;3.25;0.80;;;19.40;99.30;;;;;;5005441;28;20103;-42
2022/07/03 07:06:21;;;;;;;2.80;0.93;;;19.40;99.30;;;;;;5005079;28;20448;-42
2022/07/03 07:08:47;;;;;;;2.38;0.95;;;19.30;99.80;;;;;;4999126;28;20049;-44
2022/07/03 07:11:13;;;;;;;2.40;0.93;;;19.30;99.90;;;;;;5005322;28;20096;-44
2022/07/03 07:13:38;;;;;;;3.00;1.08;;;19.30;99.90;;;;;;5009463;28;20103;-42
2022/07/03 07:16:04;;;;;;;4.90;1.40;;;19.30;99.90;;;;;;5009220;28;20053;-43
2022/07/03 07:18:30;;;;;;;4.93;1.02;;;19.30;99.90;;;;;;5008541;28;20034;-41
2022/07/03 07:20:56;;;;;;;3.10;1.02;;;19.30;99.90;;;;;;5008583;28;20038;-41
2022/07/03 07:23:22;;;;;;;3.63;1.10;;;19.50;99.90;;;;;;5006795;28;20191;-44
2022/07/03 07:25:47;;;;;;;3.53;0.90;;;19.60;99.80;;;;;;5004780;28;20085;-46
2022/07/03 07:28:13;;;;;;;4.93;1.33;;;19.90;99.70;;;;;;5007558;28;20042;-47
2022/07/03 07:30:39;;;;;;;3.22;1.00;;;20.10;99.00;;;;;;5007712;28;20478;-41
2022/07/03 07:33:06;;;;;;;2.58;0.80;;;20.20;98.80;;;;;;4996989;28;20088;-45
2022/07/03 07:35:32;;;;;;;3.83;0.90;;;20.30;98.30;;;;;;5006152;28;20751;-42
2022/07/03 07:37:57;;;;;;;3.65;1.00;;;20.40;97.60;;;;;;5004812;28;20040;-42
2022/07/03 07:40:23;;;;;;;2.75;0.70;;;20.30;97.20;;;;;;5006760;28;20046;-43
2022/07/03 07:42:49;;;;;;;4.47;0.88;;;20.50;98.10;;;;;;5003705;28;20053;-47
2022/07/03 07:45:14;;;;;;;3.47;0.88;;;20.50;98.20;;;;;;5000912;28;20196;-41
2022/07/03 07:47:40;;;;;;;1.58;0.50;;;20.40;98.40;;;;;;5002767;28;20100;-43
2022/07/03 07:50:06;;;;;;;2.42;0.60;;;20.30;98.70;;;;;;4988690;28;20046;-45
2022/07/03 07:52:32;;;;;;;1.98;0.80;;;20.40;98.80;;;;;;5004527;28;20044;-42
2022/07/03 07:54:58;;;;;;;4.40;0.80;;;20.40;97.90;;;;;;5004478;28;20046;-42
2022/07/03 07:57:23;;;;;;;2.35;0.77;;;20.50;97.90;;;;;;5003635;28;20038;-43
2022/07/03 07:59:49;;;;;;;1.98;0.80;;;20.50;97.80;;;;;;5005026;28;20505;-42
2022/07/03 08:07:43;;;;;;;3.92;0.70;;;20.80;97.40;;;;;;5004249;28;20145;-44
2022/07/03 08:10:09;;;;;;;4.13;0.40;;;20.90;96.20;;;;;;5001687;28;20395;-50
2022/07/03 08:12:35;;;;;;;3.15;0.50;;;20.90;95.10;;;;;;5004179;28;20127;-47
2022/07/03 08:15:01;;;;;;;1.85;0.47;;;21.00;94.20;;;;;;5003482;28;20046;-44
2022/07/03 08:17:26;;;;;;;1.40;0.50;;;21.10;93.50;;;;;;5004934;28;20060;-49
2022/07/03 08:19:52;;;;;;;1.73;0.40;;;21.10;93.10;;;;;;5001224;28;20092;-43
2022/07/03 08:22:18;;;;;;;1.48;0.40;;;21.20;92.20;;;;;;5005512;28;20032;-44
2022/07/03 08:24:44;;;;;;;1.52;0.30;;;21.30;91.60;;;;;;5005881;28;20077;-45
2022/07/03 08:27:10;;;;;;;1.83;0.40;;;21.50;89.70;;;;;;5003053;28;20131;-43
2022/07/03 08:29:36;;;;;;;1.98;0.32;;;21.50;87.40;;;;;;4984997;28;20535;-46
2022/07/03 08:32:02;;;;;;;2.45;0.30;;;21.50;87.80;;;;;;5005653;28;20092;-44
2022/07/03 08:34:28;;;;;;;2.20;0.45;;;21.50;86.60;;;;;;5005754;28;20046;-45
2022/07/03 08:36:53;;;;;;;2.50;0.50;;;21.50;88.20;;;;;;5005424;28;20054;-49
2022/07/03 08:39:19;;;;;;;5.38;0.50;;;21.50;88.60;;;;;;4987512;28;20120;-44
2022/07/03 08:41:48;;;;;;;2.15;0.40;;;21.50;88.90;;;;;;5005396;28;20104;-48
2022/07/03 08:44:14;;;;;;;1.50;0.50;;;21.60;89.50;;;;;;5005232;28;20034;-45
2022/07/03 08:46:42;;;;;;;1.15;0.65;;;21.60;89.50;;;;;;5004612;28;20483;-44
2022/07/03 08:49:09;;;;;;;2.05;0.50;;;21.70;88.90;;;;;;4999671;28;20157;-42
2022/07/03 08:51:36;;;;;;;3.03;0.60;;;21.90;88.40;;;;;;5003070;28;20185;-43
2022/07/03 08:54:02;;;;;;;1.00;0.40;;;22.00;88.10;;;;;;5003461;28;20054;-43
2022/07/03 08:56:28;;;;;;;7.40;0.73;;;22.20;88.00;;;;;;5000807;28;20499;-46
2022/07/03 08:58:57;;;;;;;3.60;0.50;;;22.30;87.70;;;;;;5004050;28;20052;-45
2022/07/03 09:01:25;;;;;;;1.85;0.40;;;22.30;86.70;;;;;;4983720;28;20053;-44
2022/07/03 09:03:51;;;;;;;2.70;0.50;;;22.30;86.20;;;;;;5002930;28;20549;-44
2022/07/03 09:06:18;;;;;;;1.85;0.45;;;22.30;86.20;;;;;;5006111;28;20487;-43
2022/07/03 09:08:44;;;;;;;3.47;0.32;;;22.40;85.50;;;;;;5005448;28;20038;-43
2022/07/03 09:11:10;;;;;;;3.03;0.30;;;22.40;84.30;;;;;;4997672;28;20031;-45
2022/07/03 09:13:36;;;;;;;1.48;0.50;;;22.50;83.40;;;;;;4996917;28;20042;-43
2022/07/03 09:16:02;;;;;;;1.38;0.50;;;22.70;82.80;;;;;;5004573;28;20414;-46
2022/07/03 09:18:39;;;;;;;2.67;0.60;;;22.80;82.10;;;;;;5005518;28;20029;-49
2022/07/03 09:21:05;;;;;;;3.83;0.30;;;22.80;79.80;;;;;;5006537;28;20169;-49
2022/07/03 09:23:44;;;;;;;2.50;0.30;;;22.70;79.60;;;;;;5006320;28;20053;-45
2022/07/03 09:26:15;;;;;;;2.00;0.35;;;22.70;78.80;;;;;;5007103;28;20041;-44
2022/07/03 09:28:51;;;;;;;0.75;0.30;;;22.80;78.10;;;;;;5001921;28;20052;-44
2022/07/03 09:31:25;;;;;;;2.45;0.30;;;22.80;78.30;;;;;;5006700;28;20133;-43
2022/07/03 09:34:04;;;;;;;1.98;0.40;;;23.00;78.80;;;;;;5003179;28;20681;-48
2022/07/03 09:36:50;;;;;;;1.55;0.40;;;23.00;76.60;;;;;;5003087;28;20598;-44
2022/07/03 09:39:18;;;;;;;0.98;0.30;;;23.00;79.00;;;;;;5004030;28;20123;-48
2022/07/03 09:42:09;;;;;;;1.63;0.38;;;23.20;78.90;;;;;;5007046;28;20128;-43
2022/07/03 09:44:40;;;;;;;1.10;0.40;;;23.20;71.00;;;;;;4980408;28;20070;-43
2022/07/03 09:47:12;;;;;;;0.75;0.30;;;23.20;75.80;;;;;;5002424;28;20483;-45
2022/07/03 09:50:00;;;;;;;1.30;0.38;;;23.00;73.90;;;;;;4979793;28;20488;-44
2022/07/03 09:52:40;;;;;;;1.08;0.50;;;22.90;73.70;;;;;;4987390;28;20056;-44
2022/07/03 09:55:09;;;;;;;1.08;0.40;;;22.90;72.80;;;;;;5002563;28;20537;-47
2022/07/03 09:57:40;;;;;;;0.90;0.32;;;23.00;70.50;;;;;;4994057;28;20062;-46
2022/07/03 10:00:11;;;;;;;1.40;0.30;;;23.10;67.80;;;;;;5002793;28;20041;-43
2022/07/03 10:02:55;;;;;;;2.30;0.40;;;23.40;67.40;;;;;;5001611;28;20061;-48
2022/07/03 10:05:32;;;;;;;0.90;0.25;;;23.50;63.40;;;;;;5002692;28;20052;-44
2022/07/03 10:08:02;;;;;;;2.75;0.50;;;23.60;61.70;;;;;;5004818;28;20050;-46
2022/07/03 10:10:30;;;;;;;1.23;0.40;;;23.70;62.80;;;;;;5010627;28;20041;-43
2022/07/03 10:12:56;;;;;;;1.67;0.45;;;23.70;62.40;;;;;;5008539;28;20042;-45
2022/07/03 10:15:23;;;;;;;1.58;0.30;;;23.70;61.90;;;;;;4990927;28;20638;-45
2022/07/03 10:17:53;;;;;;;1.50;0.52;;;23.40;61.20;;;;;;5009434;28;20038;-45
2022/07/03 10:20:28;;;;;;;2.35;0.50;;;23.40;64.40;;;;;;5005251;28;20037;-44
2022/07/03 10:22:54;;;;;;;0.95;0.35;;;23.40;68.10;;;;;;5010228;28;20041;-47
2022/07/03 10:25:21;;;;;;;1.52;0.45;;;23.50;68.10;;;;;;5005535;28;20574;-45
2022/07/03 10:27:47;;;;;;;1.10;0.30;;;23.70;69.20;;;;;;5003975;28;20137;-44
2022/07/03 10:30:18;;;;;;;1.77;0.50;;;23.70;70.10;;;;;;5002963;28;20037;-44
2022/07/03 10:32:51;;;;;;;4.15;0.50;;;23.80;71.50;;;;;;4988403;28;20050;-44
2022/07/03 10:35:27;;;;;;;1.52;0.40;;;24.00;71.20;;;;;;5002589;28;20514;-45
2022/07/03 10:38:02;;;;;;;2.28;0.60;;;24.20;70.30;;;;;;5003368;28;20049;-44
2022/07/03 10:46:20;;;;;;;2.25;0.50;;;24.30;70.10;;;;;;5008588;28;20049;-45
2022/07/03 10:49:00;;;;;;;2.65;0.95;;;24.50;70.30;;;;;;5012210;28;20061;-44
2022/07/03 10:51:29;;;;;;;1.63;0.50;;;24.60;68.20;;;;;;5007378;28;20495;-44
2022/07/03 10:54:15;;;;;;;1.63;0.38;;;24.60;68.30;;;;;;5008452;28;20034;-44
2022/07/03 10:57:01;;;;;;;3.80;0.70;;;24.50;69.10;;;;;;5005952;28;20053;-45
2022/07/03 10:59:44;;;;;;;0.98;0.30;;;24.30;69.80;;;;;;5006026;28;20045;-48
2022/07/03 11:02:31;;;;;;;4.22;0.50;;;24.10;72.80;;;;;;4986993;28;20181;-45
2022/07/03 11:04:57;;;;;;;3.30;0.60;;;24.10;73.40;;;;;;5005857;28;20060;-44
2022/07/03 11:07:23;;;;;;;3.50;0.60;;;24.00;74.30;;;;;;4999380;28;20554;-44
2022/07/03 11:10:14;;;;;;;3.22;0.50;;;23.90;74.60;;;;;;4999052;28;20037;-45
2022/07/03 11:13:07;;;;;;;2.30;0.40;;;23.80;74.20;;;;;;5000141;28;20042;-49
2022/07/03 11:15:48;;;;;;;1.90;0.50;;;23.80;75.30;;;;;;5008551;28;20042;-43
2022/07/03 11:18:27;;;;;;;3.03;0.80;;;23.90;74.30;;;;;;5007882;28;20125;-42
2022/07/03 11:20:52;;;;;;;3.58;0.60;;;24.10;73.30;;;;;;4973277;28;20045;-43
2022/07/03 11:23:27;;;;;;;3.67;0.80;;;24.40;72.80;;;;;;5006055;28;20450;-44
2022/07/03 11:26:09;;;;;;;3.40;0.80;;;24.70;71.50;;;;;;5009363;28;20041;-47
2022/07/03 11:28:34;;;;;;;4.15;0.90;;;24.80;71.00;;;;;;5009525;28;20037;-44
2022/07/03 11:31:13;;;;;;;2.80;0.70;;;24.90;70.20;;;;;;5009323;28;20498;-44
2022/07/03 11:33:54;;;;;;;2.72;0.60;;;24.70;68.60;;;;;;5001695;28;20486;-43
2022/07/03 11:36:32;;;;;;;1.58;0.45;;;24.50;72.00;;;;;;4998136;28;20041;-45
2022/07/03 11:38:58;;;;;;;3.63;0.80;;;24.30;71.70;;;;;;4998098;28;20041;-42
2022/07/03 11:41:29;;;;;;;2.58;0.82;;;24.20;73.50;;;;;;4989092;28;20418;-42
2022/07/03 11:44:03;;;;;;;3.67;0.60;;;24.00;74.10;;;;;;5004693;28;20432;-44
2022/07/03 11:46:34;;;;;;;4.05;0.80;;;23.90;73.80;;;;;;4999751;28;21104;-44
2022/07/03 11:49:10;;;;;;;2.08;0.50;;;23.80;73.90;;;;;;4987767;28;20079;-46
2022/07/03 11:51:38;;;;;;;4.57;0.70;;;23.70;73.90;;;;;;5003512;28;20091;-43
2022/07/03 11:54:04;;;;;;;5.22;0.80;;;23.50;75.10;;;;;;4997171;28;20042;-43
2022/07/03 11:56:31;;;;;;;3.20;0.98;;;23.60;76.70;;;;;;4972533;28;20087;-43
2022/07/03 11:58:59;;;;;;;3.17;0.75;;;23.50;77.30;;;;;;4999931;28;20049;-42
2022/07/03 12:01:25;;;;;;;4.07;0.60;;;23.60;77.50;;;;;;5008965;28;20058;-43
2022/07/03 12:03:51;;;;;;;4.00;0.98;;;23.70;77.30;;;;;;5001610;28;20042;-42
2022/07/03 12:06:17;;;;;;;1.77;0.70;;;23.90;77.20;;;;;;5004549;28;20459;-44
2022/07/03 12:08:46;;;;;;;2.10;0.55;;;24.20;76.60;;;;;;5003816;28;20091;-43
2022/07/03 12:11:14;;;;;;;2.50;0.60;;;24.30;75.60;;;;;;5002163;28;20060;-44
2022/07/03 12:13:40;;;;;;;2.35;0.60;;;24.40;73.80;;;;;;5002015;28;20049;-43
2022/07/03 12:16:14;;;;;;;1.13;0.50;;;24.50;72.90;;;;;;4999182;28;20037;-49
2022/07/03 12:18:51;;;;;;;3.65;0.73;;;24.60;69.10;;;;;;4984716;28;20038;-43
2022/07/03 12:21:19;;;;;;;2.63;0.52;;;24.80;69.70;;;;;;4984476;28;20073;-43
2022/07/03 12:23:55;;;;;;;5.43;0.85;;;24.90;67.10;;;;;;5004530;28;20080;-45
2022/07/03 12:26:32;;;;;;;2.63;0.57;;;25.20;69.70;;;;;;5000426;28;20499;-42
2022/07/03 12:29:05;;;;;;;1.58;0.60;;;25.40;65.40;;;;;;5003135;28;20046;-44
2022/07/03 12:31:31;;;;;;;2.38;0.60;;;25.50;65.00;;;;;;5003293;28;20046;-43
2022/07/03 12:33:58;;;;;;;1.92;0.52;;;25.50;64.30;;;;;;4997928;28;20048;-43
2022/07/03 12:36:24;;;;;;;2.90;0.70;;;25.40;64.80;;;;;;4982419;28;20522;-44
2022/07/03 12:38:55;;;;;;;1.13;0.50;;;25.10;65.50;;;;;;5002944;28;20505;-43
2022/07/03 12:41:22;;;;;;;3.28;0.60;;;24.80;62.70;;;;;;5000271;28;20651;-43
2022/07/03 12:43:49;;;;;;;2.58;0.60;;;24.50;64.80;;;;;;5004017;28;20283;-42
2022/07/03 12:46:19;;;;;;;1.55;0.40;;;24.10;67.10;;;;;;4978949;28;20042;-42
2022/07/03 12:48:58;;;;;;;1.88;0.50;;;23.70;69.40;;;;;;5005582;28;20081;-44
2022/07/03 12:51:44;;;;;;;2.65;0.60;;;23.40;72.40;;;;;;5001176;28;20120;-43
2022/07/03 12:54:15;;;;;;;4.05;0.80;;;22.90;78.30;;;;;;5001361;28;20041;-43
2022/07/03 12:56:43;;;;;;;3.25;0.68;;;22.40;80.80;;;;;;4984692;28;20080;-46
2022/07/03 12:59:25;;;;;;;4.57;1.08;;;21.90;85.20;;;;;;5003587;28;20041;-47
2022/07/03 13:02:03;;;;;;;4.15;1.40;;;21.20;93.30;;;;;;5000736;28;20050;-43
2022/07/03 13:04:38;;;;;;;2.70;1.27;;;20.30;99.90;;;;;;5001753;28;20049;-45
2022/07/03 13:07:06;;;;;;;2.15;0.85;;;19.70;99.90;;;;;;5002128;28;20844;-43
2022/07/03 13:09:34;;;;;;;5.35;0.90;;;18.90;99.90;;;;;;5001266;28;21581;-44
2022/07/03 13:12:00;;;;;;;2.78;0.73;;;18.40;99.90;;;;;;5000087;28;20050;-45
2022/07/03 13:14:26;;;;;;;1.85;0.73;;;18.20;99.90;;;;;;4983421;28;20045;-46